Time;durP1;ratioP1;P1;durP2;ratioP2;P2;SDS_P1;SDS_P2;PMS_P1;PMS_P2;Temp;Humidity;BMP_temperature;BMP_pressure;BME280_temperature;BME280_humidity;BME280_pressure;Samples;Min_cycle;Max_cycle;Signal;HPM_P1;HPM_P2
2022/04/03 00:02:13;;;;;;;11.60;6.25;;;;;;;4.14;51.80;102461.03;5206245;28;20425;-38
2022/04/03 00:04:45;;;;;;;9.82;6.10;;;;;;;4.12;51.65;102470.72;5192361;28;20405;-39
2022/04/03 00:07:18;;;;;;;6.55;5.80;;;;;;;4.08;52.04;102468.28;5198774;28;20405;-45
2022/04/03 00:09:50;;;;;;;11.52;6.85;;;;;;;4.02;52.05;102465.94;5197045;28;20449;-40
2022/04/03 00:12:23;;;;;;;8.50;6.35;;;;;;;3.95;52.04;102457.53;5194299;28;20428;-42
2022/04/03 00:14:57;;;;;;;9.40;5.67;;;;;;;3.90;52.41;102467.31;5195034;28;20409;-39
2022/04/03 00:17:30;;;;;;;9.07;6.13;;;;;;;3.85;52.39;102464.94;5203616;28;20818;-39
2022/04/03 00:20:02;;;;;;;10.30;6.43;;;;;;;3.80;52.55;102464.25;5194234;28;20431;-39
2022/04/03 00:22:35;;;;;;;7.72;5.72;;;;;;;3.74;52.75;102468.91;5198821;28;20399;-40
2022/04/03 00:25:08;;;;;;;9.73;6.70;;;;;;;3.68;52.60;102465.63;5195240;28;20545;-40
2022/04/03 00:27:41;;;;;;;11.30;6.47;;;;;;;3.64;52.80;102468.47;5190719;28;20435;-39
2022/04/03 00:30:16;;;;;;;8.32;6.18;;;;;;;3.51;52.71;102462.06;5196845;28;21019;-39
2022/04/03 00:32:48;;;;;;;7.78;7.00;;;;;;;3.53;52.88;102471.53;5207872;28;20623;-39
2022/04/03 00:35:21;;;;;;;22.73;12.40;;;;;;;3.47;53.14;102475.25;5219101;28;20494;-39
2022/04/03 00:37:53;;;;;;;14.35;8.80;;;;;;;3.46;53.15;102475.28;5216674;28;20846;-40
2022/04/03 00:40:26;;;;;;;12.80;7.82;;;;;;;3.42;53.30;102471.97;5213124;28;20814;-43
2022/04/03 00:42:58;;;;;;;10.48;6.75;;;;;;;3.39;53.58;102468.63;5221708;28;20862;-40
2022/04/03 00:45:32;;;;;;;10.82;7.65;;;;;;;3.31;53.44;102460.25;5219902;28;20515;-40
2022/04/03 00:48:06;;;;;;;8.05;6.53;;;;;;;3.29;53.71;102464.72;5212579;28;20482;-41
2022/04/03 00:50:39;;;;;;;9.05;6.38;;;;;;;3.24;53.77;102465.72;5199909;28;20427;-40
2022/04/03 00:53:11;;;;;;;8.10;6.15;;;;;;;3.20;53.65;102468.53;5200498;28;20418;-40
2022/04/03 00:55:45;;;;;;;8.68;6.50;;;;;;;2.88;54.02;102418.50;5200634;28;20488;-40
2022/04/03 00:58:18;;;;;;;9.73;6.63;;;;;;;3.08;54.16;102464.66;5209670;28;20510;-41
2022/04/03 01:00:52;;;;;;;11.40;5.95;;;;;;;3.05;54.17;102462.16;5194747;28;20503;-39
2022/04/03 01:03:24;;;;;;;8.98;6.57;;;;;;;3.02;54.28;102459.69;5201249;28;20431;-40
2022/04/03 01:05:57;;;;;;;11.27;6.57;;;;;;;2.94;54.23;102451.28;5194244;28;20518;-41
2022/04/03 01:08:29;;;;;;;10.38;6.45;;;;;;;2.94;54.07;102462.59;5196585;28;20427;-40
2022/04/03 01:11:02;;;;;;;11.07;6.63;;;;;;;2.84;54.52;102449.97;5195753;28;20433;-41
2022/04/03 01:13:34;;;;;;;8.27;6.35;;;;;;;2.80;54.31;102451.00;5196243;28;20396;-47
2022/04/03 01:16:08;;;;;;;11.45;7.78;;;;;;;2.72;54.81;102449.53;5194311;28;20397;-39
2022/04/03 01:18:41;;;;;;;8.70;6.97;;;;;;;2.77;54.75;102465.84;5192789;28;20406;-39
2022/04/03 01:21:14;;;;;;;15.80;7.85;;;;;;;2.73;54.95;102469.50;5201174;28;20411;-37
2022/04/03 01:23:47;;;;;;;14.90;8.27;;;;;;;2.67;54.82;102459.31;5206898;28;20448;-39
2022/04/03 01:26:21;;;;;;;13.95;7.53;;;;;;;2.67;55.02;102458.47;5196877;28;20498;-42
2022/04/03 01:28:53;;;;;;;12.77;7.93;;;;;;;2.65;55.09;102465.47;5190952;28;20431;-39
2022/04/03 01:31:26;;;;;;;10.77;6.40;;;;;;;2.62;55.02;102465.59;5193824;28;20941;-41
2022/04/03 01:33:58;;;;;;;6.53;5.83;;;;;;;2.54;55.20;102458.09;5198462;28;20532;-39
2022/04/03 01:36:30;;;;;;;8.77;6.30;;;;;;;2.54;55.35;102458.94;5197101;28;20421;-42
2022/04/03 01:39:03;;;;;;;8.43;6.38;;;;;;;2.52;55.12;102462.50;5203581;28;20557;-38
2022/04/03 01:41:40;;;;;;;8.80;6.63;;;;;;;2.45;55.35;102453.22;5209272;28;20463;-40
2022/04/03 01:44:14;;;;;;;9.57;6.70;;;;;;;2.23;55.58;102414.03;5195223;28;20406;-39
2022/04/03 01:46:46;;;;;;;10.30;7.22;;;;;;;2.30;55.79;102423.34;5190511;28;20477;-39
2022/04/03 01:49:19;;;;;;;13.90;7.78;;;;;;;2.43;55.61;102450.66;5207541;28;20504;-39
2022/04/03 01:51:51;;;;;;;9.98;6.78;;;;;;;2.39;55.80;102432.59;5199800;28;20411;-39
2022/04/03 01:54:24;;;;;;;14.88;8.20;;;;;;;2.35;55.90;102442.25;5194354;28;20770;-40
2022/04/03 01:56:58;;;;;;;15.38;8.60;;;;;;;2.23;55.89;102427.06;5194031;28;20516;-39
2022/04/03 01:59:30;;;;;;;8.80;7.05;;;;;;;2.33;55.96;102438.03;5198147;28;20769;-43
2022/04/03 02:02:03;;;;;;;12.93;8.70;;;;;;;2.31;56.09;102445.88;5199780;28;20414;-39
2022/04/03 02:04:35;;;;;;;22.42;11.38;;;;;;;2.29;56.10;102437.25;5198437;28;20456;-41
2022/04/03 02:07:07;;;;;;;17.67;10.87;;;;;;;2.28;55.68;102435.56;5196701;28;20456;-42
2022/04/03 02:09:40;;;;;;;14.18;8.93;;;;;;;2.23;55.98;102443.59;5206023;28;20505;-40
2022/04/03 02:12:14;;;;;;;17.30;9.93;;;;;;;2.24;56.24;102440.06;5198025;28;20477;-37
2022/04/03 02:14:46;;;;;;;20.08;10.93;;;;;;;2.21;56.11;102450.59;5198752;28;20982;-41
2022/04/03 02:17:19;;;;;;;15.52;9.77;;;;;;;2.18;56.06;102450.72;5211724;28;20928;-42
2022/04/03 02:19:51;;;;;;;17.67;10.68;;;;;;;2.13;56.45;102442.19;5197491;28;20504;-40
2022/04/03 02:22:23;;;;;;;12.90;8.43;;;;;;;2.12;56.57;102440.50;5216155;28;20948;-40
2022/04/03 02:24:56;;;;;;;11.70;7.87;;;;;;;2.08;56.47;102444.97;5216900;28;20574;-40
2022/04/03 02:27:32;;;;;;;11.45;8.48;;;;;;;1.95;56.44;102424.63;5217519;28;20858;-40
2022/04/03 02:30:08;;;;;;;13.77;9.50;;;;;;;1.76;56.56;102401.81;5223005;28;20520;-40
2022/04/03 02:32:42;;;;;;;18.00;11.15;;;;;;;1.96;56.62;102436.75;5216794;28;20417;-40
2022/04/03 02:35:15;;;;;;;17.77;11.50;;;;;;;1.96;56.59;102440.22;5209376;28;20985;-40
2022/04/03 02:37:48;;;;;;;12.07;8.38;;;;;;;1.92;56.92;102442.97;5222065;28;20873;-40
2022/04/03 02:40:21;;;;;;;11.10;7.68;;;;;;;1.90;57.02;102439.59;5223495;28;20408;-40
2022/04/03 02:42:54;;;;;;;9.95;7.95;;;;;;;1.85;57.10;102432.75;5219435;28;20425;-39
2022/04/03 02:45:27;;;;;;;9.48;7.63;;;;;;;1.82;56.96;102443.28;5216109;28;20431;-40
2022/04/03 02:47:59;;;;;;;13.67;8.13;;;;;;;1.82;57.09;102434.63;5222361;28;20415;-42
2022/04/03 02:50:32;;;;;;;11.32;7.47;;;;;;;1.74;56.94;102427.09;5218186;28;20817;-40
2022/04/03 02:53:06;;;;;;;7.45;6.75;;;;;;;1.75;57.00;102436.59;5217134;28;20453;-40
2022/04/03 02:55:38;;;;;;;11.20;6.80;;;;;;;1.67;56.99;102425.59;5217502;28;20418;-42
2022/04/03 02:58:12;;;;;;;9.10;7.43;;;;;;;1.74;57.04;102436.69;5214703;28;20419;-40
2022/04/03 03:00:45;;;;;;;8.33;7.27;;;;;;;1.56;57.19;102419.94;5214455;28;20421;-40
2022/04/03 03:03:18;;;;;;;9.75;8.18;;;;;;;1.69;57.37;102441.19;5223670;28;20434;-40
2022/04/03 03:05:50;;;;;;;9.45;6.35;;;;;;;1.67;57.41;102442.97;5195680;28;20802;-43
2022/04/03 03:08:23;;;;;;;11.10;7.18;;;;;;;1.38;57.31;102417.03;5202842;28;20477;-42
2022/04/03 03:10:55;;;;;;;15.13;11.43;;;;;;;1.63;57.46;102434.44;5206596;28;20504;-40
2022/04/03 03:13:32;;;;;;;21.50;15.00;;;;;;;1.65;57.20;102434.38;5216018;28;20514;-39
2022/04/03 03:16:05;;;;;;;16.58;11.95;;;;;;;1.64;57.51;102432.66;5196597;28;20407;-39
2022/04/03 03:18:38;;;;;;;18.38;10.80;;;;;;;1.59;57.64;102430.25;5201395;28;20497;-40
2022/04/03 03:21:10;;;;;;;13.05;9.70;;;;;;;1.53;57.43;102431.28;5197299;28;20423;-39
2022/04/03 03:23:43;;;;;;;10.27;8.07;;;;;;;1.50;57.65;102423.59;5195127;28;20476;-37
2022/04/03 03:26:16;;;;;;;11.40;8.90;;;;;;;1.54;57.72;102432.13;5185590;28;20416;-39
2022/04/03 03:28:50;;;;;;;11.47;8.23;;;;;;;1.51;57.81;102434.84;5213994;28;20432;-39
2022/04/03 03:31:22;;;;;;;11.55;8.63;;;;;;;1.50;58.01;102435.75;5197560;28;20431;-39
2022/04/03 03:34:28;;;;;;;9.80;7.22;;;;;;;1.48;57.93;102434.94;5203833;28;20525;-40
2022/04/03 03:37:01;;;;;;;12.18;7.07;;;;;;;1.45;57.79;102435.06;5197538;28;20982;-39
2022/04/03 03:39:33;;;;;;;9.52;8.48;;;;;;;1.42;57.86;102437.75;5197663;28;20411;-42
2022/04/03 03:42:07;;;;;;;10.43;7.93;;;;;;;1.40;57.94;102436.97;5196639;28;20822;-40
2022/04/03 03:44:41;;;;;;;10.77;8.17;;;;;;;1.26;58.24;102414.84;5196335;28;20589;-39
2022/04/03 03:47:14;;;;;;;11.65;9.15;;;;;;;1.36;57.84;102434.47;5191356;28;20418;-39
2022/04/03 03:49:46;;;;;;;11.47;8.80;;;;;;;1.25;58.39;102410.53;5202346;28;20445;-38
2022/04/03 03:52:19;;;;;;;11.43;8.48;;;;;;;1.30;58.05;102424.28;5203716;28;20894;-40
2022/04/03 03:54:52;;;;;;;10.52;7.80;;;;;;;1.34;58.22;102432.81;5198811;28;20452;-40
2022/04/03 03:57:25;;;;;;;8.77;6.88;;;;;;;1.33;58.14;102439.78;5203405;28;20413;-42
2022/04/03 03:59:59;;;;;;;11.03;7.57;;;;;;;1.30;58.44;102437.28;5205994;28;20519;-41
2022/04/03 04:02:31;;;;;;;10.93;8.50;;;;;;;0.92;58.17;102370.88;5202325;28;20425;-38
2022/04/03 04:05:04;;;;;;;14.20;9.63;;;;;;;1.25;58.52;102431.38;5187240;28;20399;-40
2022/04/03 04:07:42;;;;;;;13.50;9.75;;;;;;;1.24;58.35;102434.88;5196528;28;20456;-39
2022/04/03 04:10:16;;;;;;;12.45;9.27;;;;;;;1.24;58.40;102429.69;5198313;28;20408;-41
2022/04/03 04:12:49;;;;;;;14.93;10.67;;;;;;;1.21;58.49;102429.78;5208311;28;20434;-39
2022/04/03 04:15:23;;;;;;;21.05;12.98;;;;;;;0.77;58.54;102356.59;5191916;28;20423;-39
2022/04/03 04:17:56;;;;;;;18.65;13.23;;;;;;;1.22;58.46;102435.81;5201152;28;20778;-43
2022/04/03 04:20:28;;;;;;;18.25;13.93;;;;;;;1.21;58.45;102432.38;5194453;28;20490;-38
2022/04/03 04:23:03;;;;;;;20.80;13.63;;;;;;;1.11;58.66;102410.97;5197646;28;20516;-40
2022/04/03 04:25:35;;;;;;;24.38;15.75;;;;;;;1.16;58.76;102429.06;5202058;28;20810;-40
2022/04/03 04:28:08;;;;;;;16.77;12.63;;;;;;;1.20;58.74;102427.22;5201584;28;20416;-40
2022/04/03 04:30:42;;;;;;;16.58;12.27;;;;;;;1.10;58.61;102419.69;5204484;28;20445;-40
2022/04/03 04:33:14;;;;;;;14.63;11.13;;;;;;;1.11;58.78;102433.56;5196259;28;20449;-39
2022/04/03 04:35:47;;;;;;;16.27;11.32;;;;;;;1.18;58.80;102429.88;5198416;28;20431;-40
2022/04/03 04:38:20;;;;;;;19.60;12.25;;;;;;;1.16;58.76;102429.06;5223836;28;20892;-40
2022/04/03 04:40:52;;;;;;;13.18;9.93;;;;;;;1.14;59.02;102433.47;5219851;28;20420;-43
2022/04/03 04:43:24;;;;;;;9.88;8.68;;;;;;;1.12;59.02;102430.06;5222665;28;20491;-40
2022/04/03 04:45:58;;;;;;;14.85;9.60;;;;;;;1.10;58.88;102434.47;5212886;28;20500;-40
2022/04/03 04:48:32;;;;;;;12.43;8.57;;;;;;;1.00;59.06;102414.84;5221128;28;20489;-40
2022/04/03 04:51:05;;;;;;;12.60;10.23;;;;;;;1.03;58.92;102427.78;5213211;28;20883;-39
2022/04/03 04:53:37;;;;;;;12.43;9.75;;;;;;;1.04;59.03;102429.47;5217036;28;20807;-40
2022/04/03 04:56:12;;;;;;;12.95;10.63;;;;;;;1.03;58.76;102435.56;5199589;28;20705;-40
2022/04/03 04:58:44;;;;;;;13.23;10.40;;;;;;;0.99;59.15;102423.53;5190610;28;20532;-43
2022/04/03 05:01:18;;;;;;;12.80;9.60;;;;;;;0.96;59.32;102426.25;5194976;28;20502;-40
2022/04/03 05:03:51;;;;;;;12.83;10.03;;;;;;;1.04;59.04;102432.91;5199006;28;20405;-41
2022/04/03 05:06:26;;;;;;;13.60;10.10;;;;;;;1.01;59.09;102424.34;5210641;28;20405;-41
2022/04/03 05:08:59;;;;;;;14.48;10.70;;;;;;;0.94;59.04;102415.91;5201786;28;20414;-39
2022/04/03 05:11:32;;;;;;;12.45;10.02;;;;;;;1.03;59.21;102422.56;5192388;28;20419;-40
2022/04/03 05:14:06;;;;;;;11.65;10.35;;;;;;;1.01;59.16;102421.75;5200637;28;20767;-39
2022/04/03 05:16:40;;;;;;;10.35;8.98;;;;;;;0.90;59.12;102409.09;5187140;28;20780;-40
2022/04/03 05:19:14;;;;;;;12.38;9.45;;;;;;;1.01;59.17;102424.34;5165804;28;20550;-37
2022/04/03 05:21:46;;;;;;;14.00;10.40;;;;;;;0.96;59.31;102414.13;5186412;28;20428;-38
2022/04/03 05:24:19;;;;;;;11.55;9.07;;;;;;;1.01;59.48;102416.56;5198038;28;20423;-43
2022/04/03 05:26:51;;;;;;;12.88;9.50;;;;;;;1.03;59.27;102409.56;5197751;28;20413;-40
2022/04/03 05:29:24;;;;;;;12.52;10.10;;;;;;;1.05;59.46;102412.94;5199155;28;20421;-38
2022/04/03 05:32:00;;;;;;;15.00;10.18;;;;;;;1.07;59.35;102411.16;5221320;28;20427;-39
2022/04/03 05:34:32;;;;;;;13.50;10.98;;;;;;;1.06;59.42;102409.47;5212854;28;20425;-39
2022/04/03 05:37:05;;;;;;;12.63;9.85;;;;;;;1.11;59.75;102408.38;5193119;28;20407;-39
2022/04/03 05:39:38;;;;;;;10.02;8.68;;;;;;;1.08;59.59;102413.69;5197807;28;20492;-39
2022/04/03 05:42:11;;;;;;;11.65;10.13;;;;;;;0.96;59.77;102395.03;5194197;28;20553;-39
2022/04/03 05:44:44;;;;;;;13.07;9.75;;;;;;;1.00;59.62;102394.03;5194654;28;20410;-35
2022/04/03 05:47:18;;;;;;;9.93;8.93;;;;;;;1.07;59.87;102421.56;5210808;28;20429;-38
2022/04/03 05:49:51;;;;;;;13.65;9.80;;;;;;;1.13;59.78;102421.34;5202336;28;20773;-42
2022/04/03 05:52:24;;;;;;;12.30;9.73;;;;;;;1.20;59.67;102433.25;5205714;28;20422;-42
2022/04/03 05:54:56;;;;;;;12.32;9.68;;;;;;;1.24;59.84;102434.88;5199074;28;20417;-38
2022/04/03 05:57:29;;;;;;;14.63;11.05;;;;;;;1.32;59.86;102432.84;5219704;28;20427;-40
2022/04/03 06:00:01;;;;;;;15.10;10.27;;;;;;;1.46;59.92;102434.16;5204484;28;20916;-40
2022/04/03 06:02:48;;;;;;;13.98;11.13;;;;;;;1.65;60.00;102429.19;5199814;28;20492;-40
2022/04/03 06:05:22;;;;;;;11.97;10.40;;;;;;;1.82;59.92;102417.25;5211945;28;20935;-40
2022/04/03 06:07:55;;;;;;;12.93;9.52;;;;;;;2.11;59.62;102433.59;5215170;28;21050;-39
2022/04/03 06:10:30;;;;;;;11.82;10.10;;;;;;;1.97;59.60;102386.34;5211456;28;20439;-39
2022/04/03 06:13:05;;;;;;;11.13;9.20;;;;;;;2.57;59.70;102437.09;5193329;28;20423;-40
2022/04/03 06:15:40;;;;;;;14.90;8.50;;;;;;;2.75;59.46;102422.47;5195521;28;20498;-40
2022/04/03 06:18:16;;;;;;;8.95;7.95;;;;;;;2.95;59.69;102432.97;5207054;28;20913;-39
2022/04/03 06:20:48;;;;;;;12.43;8.18;;;;;;;2.98;59.79;102424.19;5192880;28;20500;-39
2022/04/03 06:23:23;;;;;;;11.05;7.90;;;;;;;3.15;59.48;102445.22;5198734;28;20411;-39
2022/04/03 06:25:58;;;;;;;11.48;7.72;;;;;;;3.21;59.48;102447.56;5206164;28;20407;-39
2022/04/03 06:28:31;;;;;;;9.45;6.90;;;;;;;3.28;59.67;102444.72;5204899;28;20425;-39
2022/04/03 06:31:04;;;;;;;10.23;6.88;;;;;;;3.33;59.59;102448.00;5195406;28;20598;-39
2022/04/03 06:33:38;;;;;;;9.80;6.20;;;;;;;3.34;59.51;102434.00;5197875;28;20979;-39
2022/04/03 06:36:10;;;;;;;7.75;6.05;;;;;;;3.54;59.63;102446.25;5192960;28;20510;-40
2022/04/03 06:38:43;;;;;;;14.45;6.68;;;;;;;3.61;59.54;102427.63;5205923;28;20827;-38
2022/04/03 06:41:17;;;;;;;12.95;8.77;;;;;;;5.16;58.88;102425.72;5216085;28;20890;-44
2022/04/03 06:43:50;;;;;;;10.20;6.80;;;;;;;7.39;57.09;102422.47;5212919;28;20415;-40
2022/04/03 06:46:22;;;;;;;16.13;8.05;;;;;;;9.60;55.23;102427.78;5216576;28;20409;-42
2022/04/03 06:48:57;;;;;;;11.98;7.43;;;;;;;11.54;53.93;102423.44;5223506;28;20526;-40
2022/04/03 06:51:29;;;;;;;13.27;8.07;;;;;;;13.28;52.84;102426.38;5213476;28;20419;-40
2022/04/03 06:54:03;;;;;;;17.77;9.85;;;;;;;14.82;51.63;102434.31;5201319;28;20423;-41
2022/04/03 06:56:35;;;;;;;21.43;14.37;;;;;;;15.92;50.16;102429.44;5189137;28;20482;-39
2022/04/03 06:59:08;;;;;;;22.77;12.77;;;;;;;15.51;50.35;102433.28;5212536;28;20774;-41
2022/04/03 07:01:40;;;;;;;17.52;10.82;;;;;;;15.49;50.40;102430.78;5209060;28;20445;-40
2022/04/03 07:04:14;;;;;;;15.82;9.75;;;;;;;16.54;48.95;102419.84;5210320;28;20425;-41
2022/04/03 07:06:46;;;;;;;11.55;7.40;;;;;;;16.94;47.68;102436.44;5193840;28;20418;-41
2022/04/03 07:09:19;;;;;;;14.30;6.88;;;;;;;16.91;47.48;102434.94;5205955;28;20541;-42
2022/04/03 07:11:51;;;;;;;13.18;6.20;;;;;;;16.78;46.79;102432.59;5203176;28;20492;-41
2022/04/03 07:14:24;;;;;;;11.18;5.45;;;;;;;16.90;46.54;102440.41;5206278;28;20507;-43
2022/04/03 07:16:56;;;;;;;10.95;5.80;;;;;;;16.65;46.14;102436.63;5198787;28;20907;-41
2022/04/03 07:19:30;;;;;;;10.63;5.50;;;;;;;15.79;46.28;102434.22;5197110;28;20875;-41
2022/04/03 07:22:04;;;;;;;8.15;4.85;;;;;;;14.84;46.67;102449.16;5212709;28;20988;-40
2022/04/03 07:24:39;;;;;;;10.18;5.50;;;;;;;14.02;47.09;102446.63;5215977;28;20574;-40
2022/04/03 07:27:11;;;;;;;7.72;5.00;;;;;;;13.29;47.35;102433.38;5191330;28;20421;-40
2022/04/03 07:29:44;;;;;;;9.43;4.90;;;;;;;12.79;47.25;102451.63;5206688;28;20492;-40
2022/04/03 07:32:21;;;;;;;11.18;5.38;;;;;;;12.31;47.58;102456.41;5205381;28;20493;-40
2022/04/03 07:34:55;;;;;;;11.85;5.75;;;;;;;11.94;47.49;102449.53;5202095;28;20462;-41
2022/04/03 07:37:27;;;;;;;11.50;5.30;;;;;;;11.59;47.53;102444.28;5200927;28;20501;-43
2022/04/03 07:40:00;;;;;;;9.20;5.15;;;;;;;11.36;47.58;102448.66;5220964;28;20430;-41
2022/04/03 07:42:32;;;;;;;9.98;4.82;;;;;;;11.08;47.66;102445.41;5197486;28;20832;-42
2022/04/03 07:45:06;;;;;;;9.73;4.82;;;;;;;10.80;47.56;102448.41;5196299;28;20893;-41
2022/04/03 07:47:47;;;;;;;9.90;5.40;;;;;;;10.69;47.54;102464.22;5194838;28;20408;-41
2022/04/03 07:50:21;;;;;;;6.57;4.55;;;;;;;10.40;47.69;102469.75;5224849;28;20408;-41
2022/04/03 07:52:54;;;;;;;9.02;4.68;;;;;;;10.03;47.92;102467.03;5238604;28;20417;-41
2022/04/03 07:55:26;;;;;;;5.15;2.78;;;;;;;9.62;48.41;102473.34;5201204;28;20902;-41
2022/04/03 07:57:59;;;;;;;21.60;3.10;;;;;;;9.33;48.32;102500.84;5200575;28;20506;-41
2022/04/03 08:00:31;;;;;;;2.40;2.10;;;;;;;9.12;48.47;102485.47;5203630;28;20447;-41
2022/04/03 08:03:04;;;;;;;4.05;2.22;;;;;;;9.02;48.50;102499.34;5208112;28;20498;-41
2022/04/03 08:05:37;;;;;;;4.60;2.15;;;;;;;8.92;48.53;102504.34;5224701;28;20511;-40
2022/04/03 08:08:10;;;;;;;7.28;2.65;;;;;;;8.75;48.65;102510.69;5203186;28;20413;-40
2022/04/03 08:10:42;;;;;;;7.72;2.83;;;;;;;8.56;48.68;102513.63;5218864;28;20492;-41
2022/04/03 08:13:15;;;;;;;5.20;2.80;;;;;;;8.30;48.92;102518.69;5219455;28;20903;-41
2022/04/03 08:15:48;;;;;;;8.02;2.90;;;;;;;8.06;49.00;102528.06;5187259;28;20860;-44
2022/04/03 08:18:22;;;;;;;5.07;2.63;;;;;;;7.79;49.07;102523.50;5225109;28;20421;-40
2022/04/03 08:20:56;;;;;;;3.95;2.03;;;;;;;7.50;49.26;102524.38;5221131;28;20424;-41
2022/04/03 08:23:28;;;;;;;5.10;2.30;;;;;;;7.37;49.37;102519.81;5220271;28;20416;-42
2022/04/03 08:26:01;;;;;;;4.40;2.40;;;;;;;7.21;49.55;102511.09;5217058;28;20431;-48
2022/04/03 08:28:34;;;;;;;5.28;2.67;;;;;;;7.04;49.61;102503.31;5215252;28;20409;-42
2022/04/03 08:31:06;;;;;;;5.03;2.55;;;;;;;6.90;49.91;102507.53;5211743;28;20422;-42
2022/04/03 08:33:38;;;;;;;4.90;2.60;;;;;;;6.99;50.21;102506.19;5219643;28;20811;-41
2022/04/03 08:36:13;;;;;;;2.90;2.28;;;;;;;7.25;50.11;102512.63;5213306;28;20988;-49
2022/04/03 08:38:46;;;;;;;4.03;2.53;;;;;;;7.43;50.22;102499.34;5200786;28;20527;-41
2022/04/03 08:41:19;;;;;;;2.58;2.00;;;;;;;7.76;50.20;102510.53;5204361;28;20881;-41
2022/04/03 08:43:51;;;;;;;5.90;2.28;;;;;;;8.04;50.28;102509.72;5206677;28;20427;-40
2022/04/03 08:46:26;;;;;;;1.65;1.55;;;;;;;8.28;50.29;102504.78;5213413;28;20980;-43
2022/04/03 08:49:01;;;;;;;2.97;1.50;;;;;;;8.49;50.24;102504.44;5202113;28;20420;-42
2022/04/03 08:51:39;;;;;;;1.67;1.58;;;;;;;8.60;50.10;102448.44;5203587;28;20497;-43
2022/04/03 08:54:14;;;;;;;1.02;1.00;;;;;;;9.55;49.99;102508.16;5206094;28;20779;-41
2022/04/03 08:56:47;;;;;;;2.92;0.90;;;;;;;10.10;49.75;102489.44;5211581;28;20405;-41
2022/04/03 08:59:19;;;;;;;2.10;1.08;;;;;;;10.44;49.42;102502.13;5211399;28;20511;-42
2022/04/03 09:01:53;;;;;;;2.95;0.98;;;;;;;10.45;49.55;102483.50;5214057;28;20421;-44
2022/04/03 09:04:27;;;;;;;1.60;1.00;;;;;;;10.34;49.62;102486.03;5214888;28;20476;-42
2022/04/03 09:07:01;;;;;;;3.17;1.10;;;;;;;10.02;49.89;102469.78;5203498;28;20424;-45
2022/04/03 09:09:34;;;;;;;2.15;1.33;;;;;;;10.04;49.96;102489.84;5205347;28;20882;-42
2022/04/03 09:12:15;;;;;;;1.63;1.15;;;;;;;9.88;50.19;102494.50;5215610;28;20419;-42
2022/04/03 09:14:50;;;;;;;4.68;2.22;;;;;;;9.79;50.32;102498.59;5192258;28;20464;-41
2022/04/03 09:17:38;;;;;;;1.90;1.30;;;;;;;9.78;50.33;102498.69;5187393;28;20509;-41
2022/04/03 09:20:13;;;;;;;3.08;1.80;;;;;;;9.68;50.39;102507.22;5216200;28;20432;-41
2022/04/03 09:22:51;;;;;;;2.63;1.60;;;;;;;9.32;50.69;102491.22;5212818;28;20473;-40
2022/04/03 09:25:28;;;;;;;1.77;1.67;;;;;;;8.95;50.96;102493.59;5213902;28;20413;-42
2022/04/03 09:28:03;;;;;;;4.75;2.17;;;;;;;8.83;51.23;102483.88;5218243;28;20489;-41
2022/04/03 09:30:38;;;;;;;6.10;2.03;;;;;;;8.75;51.16;102477.28;5222144;28;20491;-44
2022/04/03 09:33:15;;;;;;;3.50;1.40;;;;;;;8.71;51.04;102449.47;5213366;28;20802;-46
2022/04/03 09:36:00;;;;;;;4.60;1.65;;;;;;;9.06;51.10;102477.94;5209579;28;20808;-42
2022/04/03 09:38:35;;;;;;;2.25;1.50;;;;;;;9.19;50.83;102464.81;5208487;28;20945;-42
2022/04/03 09:41:08;;;;;;;4.82;1.52;;;;;;;9.54;50.70;102470.41;5224238;28;20400;-42
2022/04/03 09:43:40;;;;;;;2.47;1.30;;;;;;;9.76;50.12;102474.22;5192534;28;20784;-49
2022/04/03 09:46:14;;;;;;;1.07;0.97;;;;;;;9.84;50.69;102466.63;5217843;28;20496;-42
2022/04/03 09:48:47;;;;;;;2.40;1.20;;;;;;;9.93;50.81;102460.69;5224228;28;20403;-43
2022/04/03 09:51:22;;;;;;;1.75;1.10;;;;;;;9.98;50.89;102463.03;5211137;28;20719;-41
2022/04/03 09:54:01;;;;;;;1.58;1.30;;;;;;;10.00;50.91;102461.97;5208545;28;20948;-45
2022/04/03 09:56:37;;;;;;;2.80;1.63;;;;;;;10.11;50.90;102448.88;5212357;28;23397;-43
2022/04/03 09:59:10;;;;;;;2.08;1.30;;;;;;;10.19;50.88;102456.28;5211032;28;20427;-42
2022/04/03 10:01:43;;;;;;;2.38;1.50;;;;;;;10.25;50.99;102473.44;5214836;28;20412;-40
2022/04/03 10:04:16;;;;;;;4.17;1.70;;;;;;;10.34;50.84;102444.66;5194847;28;20498;-45
2022/04/03 10:06:48;;;;;;;2.85;1.90;;;;;;;10.52;50.73;102439.84;5207860;28;20407;-41
2022/04/03 10:09:23;;;;;;;1.98;1.50;;;;;;;10.77;50.88;102438.91;5211940;28;20424;-42
2022/04/03 10:11:56;;;;;;;2.83;1.52;;;;;;;11.08;50.48;102442.78;5206289;28;20424;-45
2022/04/03 10:14:29;;;;;;;5.13;1.48;;;;;;;11.20;50.31;102426.97;5203462;28;20418;-43
2022/04/03 10:17:02;;;;;;;2.88;1.30;;;;;;;11.53;50.31;102452.69;5207366;28;20451;-41
2022/04/03 10:19:34;;;;;;;6.97;1.45;;;;;;;11.32;50.30;102457.78;5210567;28;20409;-42
2022/04/03 10:22:12;;;;;;;4.85;1.60;;;;;;;11.12;50.24;102461.06;5216358;28;20825;-43
2022/04/03 10:24:52;;;;;;;1.80;1.65;;;;;;;10.74;50.34;102451.50;5208855;28;20735;-44
2022/04/03 10:27:29;;;;;;;3.35;1.63;;;;;;;10.51;50.40;102459.28;5211629;28;20492;-40
2022/04/03 10:30:02;;;;;;;3.27;1.10;;;;;;;10.35;50.30;102453.41;5216497;28;20492;-41
2022/04/03 10:32:36;;;;;;;1.83;1.20;;;;;;;10.24;50.31;102448.00;5228280;28;20507;-40
2022/04/03 10:35:11;;;;;;;1.70;1.30;;;;;;;10.33;50.38;102442.94;5200862;28;20723;-42
2022/04/03 10:37:44;;;;;;;7.07;4.43;;;;;;;10.27;50.14;102431.97;5198980;28;20452;-42
2022/04/03 10:40:19;;;;;;;4.10;3.70;;;;;;;10.47;50.03;102428.78;5216047;28;20906;-42
2022/04/03 10:42:55;;;;;;;3.35;2.15;;;;;;;10.68;50.04;102446.66;5217282;28;20415;-41
2022/04/03 10:45:29;;;;;;;3.15;2.47;;;;;;;10.76;50.21;102444.31;5240502;28;20414;-42
2022/04/03 10:48:27;;;;;;;5.18;1.38;;;;;;;10.80;49.97;102441.31;5207106;28;20425;-42
2022/04/03 10:51:04;;;;;;;2.28;1.30;;;;;;;10.87;49.87;102436.47;5192632;28;20990;-41
2022/04/03 10:53:39;;;;;;;2.22;1.40;;;;;;;10.89;49.99;102429.25;5215740;28;20407;-42
2022/04/03 10:56:23;;;;;;;3.45;1.88;;;;;;;10.57;49.99;102374.31;5194484;28;20482;-42
2022/04/03 10:59:11;;;;;;;3.92;2.40;;;;;;;10.94;49.94;102411.25;5210177;28;20867;-42
2022/04/03 11:01:46;;;;;;;4.40;1.70;;;;;;;11.18;49.66;102413.00;5189496;28;20418;-40
2022/04/03 11:04:22;;;;;;;3.05;1.50;;;;;;;11.41;49.58;102414.78;5213862;28;20470;-42
2022/04/03 11:07:14;;;;;;;6.07;2.20;;;;;;;11.50;49.59;102414.06;5205415;28;20497;-43
2022/04/03 11:09:50;;;;;;;4.15;1.92;;;;;;;11.40;49.56;102413.09;5210074;28;20413;-46
2022/04/03 11:12:45;;;;;;;2.95;2.15;;;;;;;11.38;49.55;102411.50;5204907;28;20439;-41
2022/04/03 11:15:17;;;;;;;5.37;1.83;;;;;;;11.34;49.35;102418.00;5182159;28;20518;-44
2022/04/03 11:17:53;;;;;;;3.53;1.23;;;;;;;11.40;49.15;102413.09;5210350;28;20531;-43
2022/04/03 11:20:47;;;;;;;5.40;3.55;;;;;;;11.43;49.03;102404.09;5219286;28;20419;-43
2022/04/03 11:23:21;;;;;;;5.13;2.83;;;;;;;11.52;48.91;102396.28;5193416;28;20400;-41
2022/04/03 11:25:54;;;;;;;5.30;1.60;;;;;;;11.65;48.70;102401.47;5215939;28;20442;-41
2022/04/03 11:28:34;;;;;;;2.15;1.38;;;;;;;11.59;48.56;102394.00;5223194;28;20501;-42
2022/04/03 11:31:07;;;;;;;1.65;1.30;;;;;;;11.74;48.43;102389.34;5202000;28;20493;-41
2022/04/03 11:33:40;;;;;;;1.60;1.48;;;;;;;11.76;48.31;102392.69;5204946;28;20504;-42
2022/04/03 11:36:16;;;;;;;2.83;1.42;;;;;;;11.59;48.19;102385.22;5204814;28;20504;-40
2022/04/03 11:38:51;;;;;;;2.72;1.45;;;;;;;11.05;47.95;102308.16;5203955;28;20456;-41
2022/04/03 11:41:27;;;;;;;1.83;1.23;;;;;;;11.78;48.08;102396.06;5202405;28;20429;-42
2022/04/03 11:44:03;;;;;;;3.88;1.35;;;;;;;11.72;47.75;102391.25;5201417;28;20420;-43
2022/04/03 11:46:39;;;;;;;2.70;1.30;;;;;;;11.49;47.86;102391.22;5214738;28;20486;-42
2022/04/03 11:49:15;;;;;;;1.73;1.50;;;;;;;11.22;47.95;102404.75;5207890;28;20887;-45
2022/04/03 11:51:53;;;;;;;5.03;1.65;;;;;;;10.88;48.07;102379.97;5197811;28;20876;-42
2022/04/03 11:54:26;;;;;;;4.65;1.67;;;;;;;10.75;48.16;102395.06;5216913;28;20499;-42
2022/04/03 11:57:01;;;;;;;8.15;1.70;;;;;;;10.54;48.27;102387.75;5197930;28;20429;-42
2022/04/03 11:59:37;;;;;;;7.45;2.22;;;;;;;10.38;48.57;102403.03;5207726;28;20454;-41